Vilvoorde, Belgium
Current Conditions -  °F | °C
As of 5:20 AM on Sunday 23 Nov 2014 (Local Time) from EBBR Reporting Station
Clear Clear  
Wind Chill: 50°   Ceiling: Unl
Heat Index: 50°   Visibility: 6mi
Dew Point: 46°   Wind: 6mph
Humidity: 87%   Direction: 160°SSE
Pressure: 30"   Gusts: NA
Location:  50.93°N, 4.42°E
Report Text: EBBR 230420Z 16005KT CAVOK 10/08 Q1016 NOSIG
Loading
Personal Weather Stations






























Interactive Weather Map New forecast layout! Learn more

10-Day Weather Forecast

Advertisements
Track Severe Weather on mobile